Terminal Aerodrome Forecast
Issued by NWS

Home | Current Version | Previous Version | Text Only | Print | Product List | Glossary On
Versions: 1 2 3 4 5 6 7 8 9 10 11 12 13 14 15 16 17 18
000
FTUS43 KFGF 261721 AAB
TAFDVL
TAF AMD
KDVL 261721Z 2617/2718 34008KT P6SM OVC040
      TEMPO 2618/2619 -RA BKN010
     FM270200 VRB06KT P6SM BKN100
     FM270800 23006KT P6SM FEW200=

USA.gov is the U.S. government's official web portal to all federal, state and local government web resources and services.